sensor_id;sensor_type;location;lat;lon;timestamp;temperature;humidity
11848;DHT22;5983;49.966;8.052;2023-02-28T00:01:26;1.80;99.90
11848;DHT22;5983;49.966;8.052;2023-02-28T00:03:53;1.80;99.90
11848;DHT22;5983;49.966;8.052;2023-02-28T00:06:21;1.80;99.90
11848;DHT22;5983;49.966;8.052;2023-02-28T00:08:49;1.80;99.90
11848;DHT22;5983;49.966;8.052;2023-02-28T00:11:16;1.80;99.90
11848;DHT22;5983;49.966;8.052;2023-02-28T00:13:46;1.80;99.90
11848;DHT22;5983;49.966;8.052;2023-02-28T00:16:15;1.80;99.90
11848;DHT22;5983;49.966;8.052;2023-02-28T00:18:43;1.80;99.90
11848;DHT22;5983;49.966;8.052;2023-02-28T00:21:10;1.70;99.90
11848;DHT22;5983;49.966;8.052;2023-02-28T00:23:37;1.70;99.90
11848;DHT22;5983;49.966;8.052;2023-02-28T00:26:04;1.70;99.90
11848;DHT22;5983;49.966;8.052;2023-02-28T00:28:32;1.70;99.90
11848;DHT22;5983;49.966;8.052;2023-02-28T00:31:00;1.80;99.90
11848;DHT22;5983;49.966;8.052;2023-02-28T00:33:28;1.80;99.90
11848;DHT22;5983;49.966;8.052;2023-02-28T00:36:03;1.90;99.90
11848;DHT22;5983;49.966;8.052;2023-02-28T00:38:31;1.90;99.90
11848;DHT22;5983;49.966;8.052;2023-02-28T00:40:58;1.90;99.90
11848;DHT22;5983;49.966;8.052;2023-02-28T00:43:30;1.90;99.90
11848;DHT22;5983;49.966;8.052;2023-02-28T00:45:59;1.90;99.90
11848;DHT22;5983;49.966;8.052;2023-02-28T00:48:27;2.00;99.90
11848;DHT22;5983;49.966;8.052;2023-02-28T00:50:54;2.00;99.90
11848;DHT22;5983;49.966;8.052;2023-02-28T00:53:21;2.00;99.90
11848;DHT22;5983;49.966;8.052;2023-02-28T00:55:49;2.00;99.90
11848;DHT22;5983;49.966;8.052;2023-02-28T00:58:16;2.10;99.90
11848;DHT22;5983;49.966;8.052;2023-02-28T01:00:43;2.00;99.90
11848;DHT22;5983;49.966;8.052;2023-02-28T01:03:15;2.00;99.90
11848;DHT22;5983;49.966;8.052;2023-02-28T01:05:43;2.10;99.90
11848;DHT22;5983;49.966;8.052;2023-02-28T01:08:10;2.10;99.90
11848;DHT22;5983;49.966;8.052;2023-02-28T01:10:39;2.10;99.90
11848;DHT22;5983;49.966;8.052;2023-02-28T01:13:06;2.10;99.90
11848;DHT22;5983;49.966;8.052;2023-02-28T01:15:33;2.10;99.90
11848;DHT22;5983;49.966;8.052;2023-02-28T01:18:00;2.10;99.90
11848;DHT22;5983;49.966;8.052;2023-02-28T01:20:28;2.10;99.90
11848;DHT22;5983;49.966;8.052;2023-02-28T01:22:55;2.10;99.90
11848;DHT22;5983;49.966;8.052;2023-02-28T01:25:22;2.10;99.90
11848;DHT22;5983;49.966;8.052;2023-02-28T01:27:49;2.10;99.90
11848;DHT22;5983;49.966;8.052;2023-02-28T01:30:16;2.10;99.90
11848;DHT22;5983;49.966;8.052;2023-02-28T01:32:43;2.00;99.90
11848;DHT22;5983;49.966;8.052;2023-02-28T01:35:10;2.00;99.90
11848;DHT22;5983;49.966;8.052;2023-02-28T01:37:38;2.00;99.90
11848;DHT22;5983;49.966;8.052;2023-02-28T01:40:06;2.00;99.90
11848;DHT22;5983;49.966;8.052;2023-02-28T01:42:34;2.00;99.90
11848;DHT22;5983;49.966;8.052;2023-02-28T01:45:16;2.00;99.90
11848;DHT22;5983;49.966;8.052;2023-02-28T01:47:48;1.90;99.90
11848;DHT22;5983;49.966;8.052;2023-02-28T01:50:21;1.90;99.90
11848;DHT22;5983;49.966;8.052;2023-02-28T01:52:53;1.90;99.90
11848;DHT22;5983;49.966;8.052;2023-02-28T01:55:24;1.80;99.90
11848;DHT22;5983;49.966;8.052;2023-02-28T01:57:56;1.80;99.90
11848;DHT22;5983;49.966;8.052;2023-02-28T02:00:29;1.70;99.90
11848;DHT22;5983;49.966;8.052;2023-02-28T02:02:59;1.70;99.90
11848;DHT22;5983;49.966;8.052;2023-02-28T02:05:31;1.70;99.90
11848;DHT22;5983;49.966;8.052;2023-02-28T02:08:04;1.60;99.90
11848;DHT22;5983;49.966;8.052;2023-02-28T02:10:35;1.60;99.90
11848;DHT22;5983;49.966;8.052;2023-02-28T02:13:14;1.60;99.90
11848;DHT22;5983;49.966;8.052;2023-02-28T02:16:08;1.50;99.90
11848;DHT22;5983;49.966;8.052;2023-02-28T02:18:47;1.50;99.90
11848;DHT22;5983;49.966;8.052;2023-02-28T02:21:33;1.40;99.90
11848;DHT22;5983;49.966;8.052;2023-02-28T02:28:09;1.40;99.90
11848;DHT22;5983;49.966;8.052;2023-02-28T02:30:59;1.40;99.90
11848;DHT22;5983;49.966;8.052;2023-02-28T02:37:23;1.30;99.90
11848;DHT22;5983;49.966;8.052;2023-02-28T02:40:02;1.30;99.90
11848;DHT22;5983;49.966;8.052;2023-02-28T02:42:41;1.30;99.90
11848;DHT22;5983;49.966;8.052;2023-02-28T02:45:14;1.30;99.90
11848;DHT22;5983;49.966;8.052;2023-02-28T02:47:46;1.30;99.90
11848;DHT22;5983;49.966;8.052;2023-02-28T02:50:18;1.30;99.90
11848;DHT22;5983;49.966;8.052;2023-02-28T02:52:53;1.20;99.90
11848;DHT22;5983;49.966;8.052;2023-02-28T02:55:23;1.20;99.90
11848;DHT22;5983;49.966;8.052;2023-02-28T02:57:54;1.20;99.90
11848;DHT22;5983;49.966;8.052;2023-02-28T03:00:29;1.20;99.90
11848;DHT22;5983;49.966;8.052;2023-02-28T03:02:59;1.20;99.90
11848;DHT22;5983;49.966;8.052;2023-02-28T03:05:32;1.10;99.90
11848;DHT22;5983;49.966;8.052;2023-02-28T03:08:07;1.10;99.90
11848;DHT22;5983;49.966;8.052;2023-02-28T03:10:37;1.10;99.90
11848;DHT22;5983;49.966;8.052;2023-02-28T03:16:38;1.10;99.90
11848;DHT22;5983;49.966;8.052;2023-02-28T03:19:33;1.00;99.90
11848;DHT22;5983;49.966;8.052;2023-02-28T03:22:24;1.00;99.90
11848;DHT22;5983;49.966;8.052;2023-02-28T03:25:07;1.00;99.90
11848;DHT22;5983;49.966;8.052;2023-02-28T03:27:41;1.00;99.90
11848;DHT22;5983;49.966;8.052;2023-02-28T03:30:22;0.90;99.90
11848;DHT22;5983;49.966;8.052;2023-02-28T03:32:55;0.90;99.90
11848;DHT22;5983;49.966;8.052;2023-02-28T03:35:31;0.90;99.90
11848;DHT22;5983;49.966;8.052;2023-02-28T03:38:03;0.90;99.90
11848;DHT22;5983;49.966;8.052;2023-02-28T03:40:38;0.90;99.90
11848;DHT22;5983;49.966;8.052;2023-02-28T03:43:14;0.90;99.90
11848;DHT22;5983;49.966;8.052;2023-02-28T03:45:47;0.90;99.90
11848;DHT22;5983;49.966;8.052;2023-02-28T03:48:20;0.80;99.90
11848;DHT22;5983;49.966;8.052;2023-02-28T03:50:53;0.80;99.90
11848;DHT22;5983;49.966;8.052;2023-02-28T03:53:28;0.80;99.90
11848;DHT22;5983;49.966;8.052;2023-02-28T03:56:01;0.80;99.90
11848;DHT22;5983;49.966;8.052;2023-02-28T03:58:37;0.80;99.90
11848;DHT22;5983;49.966;8.052;2023-02-28T04:01:12;0.70;99.90
11848;DHT22;5983;49.966;8.052;2023-02-28T04:03:42;0.70;99.90
11848;DHT22;5983;49.966;8.052;2023-02-28T04:06:14;0.70;99.90
11848;DHT22;5983;49.966;8.052;2023-02-28T04:08:44;0.70;99.90
11848;DHT22;5983;49.966;8.052;2023-02-28T04:11:19;0.70;99.90
11848;DHT22;5983;49.966;8.052;2023-02-28T04:13:49;0.70;99.90
11848;DHT22;5983;49.966;8.052;2023-02-28T04:16:16;0.60;99.90
11848;DHT22;5983;49.966;8.052;2023-02-28T04:18:43;0.60;99.90
11848;DHT22;5983;49.966;8.052;2023-02-28T04:21:10;0.60;99.90
11848;DHT22;5983;49.966;8.052;2023-02-28T04:23:38;0.60;99.90
11848;DHT22;5983;49.966;8.052;2023-02-28T04:26:05;0.60;99.90
11848;DHT22;5983;49.966;8.052;2023-02-28T04:28:34;0.60;99.90
11848;DHT22;5983;49.966;8.052;2023-02-28T04:31:02;0.60;99.90
11848;DHT22;5983;49.966;8.052;2023-02-28T04:33:31;0.70;99.90
11848;DHT22;5983;49.966;8.052;2023-02-28T04:36:00;0.70;99.90
11848;DHT22;5983;49.966;8.052;2023-02-28T04:38:28;0.70;99.90
11848;DHT22;5983;49.966;8.052;2023-02-28T04:40:57;0.70;99.90
11848;DHT22;5983;49.966;8.052;2023-02-28T04:43:25;0.70;99.90
11848;DHT22;5983;49.966;8.052;2023-02-28T04:45:54;0.70;99.90
11848;DHT22;5983;49.966;8.052;2023-02-28T04:48:23;0.70;99.90
11848;DHT22;5983;49.966;8.052;2023-02-28T04:50:50;0.70;99.90
11848;DHT22;5983;49.966;8.052;2023-02-28T04:53:18;0.60;99.90
11848;DHT22;5983;49.966;8.052;2023-02-28T04:55:45;0.60;99.90
11848;DHT22;5983;49.966;8.052;2023-02-28T04:58:13;0.50;99.90
11848;DHT22;5983;49.966;8.052;2023-02-28T05:00:40;0.60;99.90
11848;DHT22;5983;49.966;8.052;2023-02-28T05:03:08;0.50;99.90
11848;DHT22;5983;49.966;8.052;2023-02-28T05:05:35;0.50;99.90
11848;DHT22;5983;49.966;8.052;2023-02-28T05:08:02;0.50;99.90
11848;DHT22;5983;49.966;8.052;2023-02-28T05:10:30;0.50;99.90
11848;DHT22;5983;49.966;8.052;2023-02-28T05:12:58;0.40;99.90
11848;DHT22;5983;49.966;8.052;2023-02-28T05:15:25;0.40;99.90
11848;DHT22;5983;49.966;8.052;2023-02-28T05:17:51;0.40;99.90
11848;DHT22;5983;49.966;8.052;2023-02-28T05:20:20;0.40;99.90
11848;DHT22;5983;49.966;8.052;2023-02-28T05:22:47;0.40;99.90
11848;DHT22;5983;49.966;8.052;2023-02-28T05:25:18;0.30;99.90
11848;DHT22;5983;49.966;8.052;2023-02-28T05:27:47;0.30;99.90
11848;DHT22;5983;49.966;8.052;2023-02-28T05:30:14;0.30;99.90
11848;DHT22;5983;49.966;8.052;2023-02-28T05:32:42;0.20;99.90
11848;DHT22;5983;49.966;8.052;2023-02-28T05:35:10;0.30;99.90
11848;DHT22;5983;49.966;8.052;2023-02-28T05:37:39;0.20;99.90
11848;DHT22;5983;49.966;8.052;2023-02-28T05:40:07;0.20;99.90
11848;DHT22;5983;49.966;8.052;2023-02-28T05:42:35;0.20;99.90
11848;DHT22;5983;49.966;8.052;2023-02-28T05:45:03;0.30;99.90
11848;DHT22;5983;49.966;8.052;2023-02-28T05:47:30;0.20;99.90
11848;DHT22;5983;49.966;8.052;2023-02-28T05:49:57;0.30;99.90
11848;DHT22;5983;49.966;8.052;2023-02-28T05:52:25;0.30;99.90
11848;DHT22;5983;49.966;8.052;2023-02-28T05:54:53;0.30;99.90
11848;DHT22;5983;49.966;8.052;2023-02-28T05:57:20;0.20;99.90
11848;DHT22;5983;49.966;8.052;2023-02-28T05:59:48;0.20;99.90
11848;DHT22;5983;49.966;8.052;2023-02-28T06:02:16;0.20;99.90
11848;DHT22;5983;49.966;8.052;2023-02-28T06:04:44;0.30;99.90
11848;DHT22;5983;49.966;8.052;2023-02-28T06:07:13;0.20;99.90
11848;DHT22;5983;49.966;8.052;2023-02-28T06:09:43;0.30;99.90
11848;DHT22;5983;49.966;8.052;2023-02-28T06:12:13;0.30;99.90
11848;DHT22;5983;49.966;8.052;2023-02-28T06:14:40;0.30;99.90
11848;DHT22;5983;49.966;8.052;2023-02-28T06:17:09;0.30;99.90
11848;DHT22;5983;49.966;8.052;2023-02-28T06:19:36;0.30;99.90
11848;DHT22;5983;49.966;8.052;2023-02-28T06:22:05;0.30;99.90
11848;DHT22;5983;49.966;8.052;2023-02-28T06:24:32;0.20;99.90
11848;DHT22;5983;49.966;8.052;2023-02-28T06:26:59;0.20;99.90
11848;DHT22;5983;49.966;8.052;2023-02-28T06:29:31;0.20;99.90
11848;DHT22;5983;49.966;8.052;2023-02-28T06:31:59;0.30;99.90
11848;DHT22;5983;49.966;8.052;2023-02-28T06:34:26;0.30;99.90
11848;DHT22;5983;49.966;8.052;2023-02-28T06:36:54;0.30;99.90
11848;DHT22;5983;49.966;8.052;2023-02-28T06:39:24;0.30;99.90
11848;DHT22;5983;49.966;8.052;2023-02-28T06:41:55;0.30;99.90
11848;DHT22;5983;49.966;8.052;2023-02-28T06:44:23;0.40;99.90
11848;DHT22;5983;49.966;8.052;2023-02-28T06:46:53;0.60;99.90
11848;DHT22;5983;49.966;8.052;2023-02-28T06:49:20;0.90;99.90
11848;DHT22;5983;49.966;8.052;2023-02-28T06:51:47;1.30;99.90
11848;DHT22;5983;49.966;8.052;2023-02-28T06:54:15;1.60;99.90
11848;DHT22;5983;49.966;8.052;2023-02-28T06:56:42;2.00;99.90
11848;DHT22;5983;49.966;8.052;2023-02-28T06:59:09;2.50;99.90
11848;DHT22;5983;49.966;8.052;2023-02-28T07:01:36;3.20;99.90
11848;DHT22;5983;49.966;8.052;2023-02-28T07:04:05;4.00;99.90
11848;DHT22;5983;49.966;8.052;2023-02-28T07:06:33;4.80;99.90
11848;DHT22;5983;49.966;8.052;2023-02-28T07:09:00;5.70;99.90
11848;DHT22;5983;49.966;8.052;2023-02-28T07:11:28;6.50;97.20
11848;DHT22;5983;49.966;8.052;2023-02-28T07:13:55;7.30;94.40
11848;DHT22;5983;49.966;8.052;2023-02-28T07:16:24;8.20;91.10
11848;DHT22;5983;49.966;8.052;2023-02-28T07:18:52;8.90;85.80
11848;DHT22;5983;49.966;8.052;2023-02-28T07:21:21;9.70;79.90
11848;DHT22;5983;49.966;8.052;2023-02-28T07:23:49;10.40;72.90
11848;DHT22;5983;49.966;8.052;2023-02-28T07:26:18;11.20;67.10
11848;DHT22;5983;49.966;8.052;2023-02-28T07:28:47;11.80;61.90
11848;DHT22;5983;49.966;8.052;2023-02-28T07:31:15;12.40;58.00
11848;DHT22;5983;49.966;8.052;2023-02-28T07:33:44;12.90;55.40
11848;DHT22;5983;49.966;8.052;2023-02-28T07:36:13;13.40;53.00
11848;DHT22;5983;49.966;8.052;2023-02-28T07:38:44;13.90;50.40
11848;DHT22;5983;49.966;8.052;2023-02-28T07:41:13;14.50;48.00
11848;DHT22;5983;49.966;8.052;2023-02-28T07:43:41;14.90;46.00
11848;DHT22;5983;49.966;8.052;2023-02-28T07:46:11;15.50;43.60
11848;DHT22;5983;49.966;8.052;2023-02-28T07:48:41;16.00;41.20
11848;DHT22;5983;49.966;8.052;2023-02-28T07:51:08;16.40;39.50
11848;DHT22;5983;49.966;8.052;2023-02-28T07:53:36;16.70;38.60
11848;DHT22;5983;49.966;8.052;2023-02-28T07:56:05;16.90;37.20
11848;DHT22;5983;49.966;8.052;2023-02-28T07:58:33;17.20;35.80
11848;DHT22;5983;49.966;8.052;2023-02-28T08:01:05;17.50;35.00
11848;DHT22;5983;49.966;8.052;2023-02-28T08:03:33;18.00;34.10
11848;DHT22;5983;49.966;8.052;2023-02-28T08:06:00;18.50;33.10
11848;DHT22;5983;49.966;8.052;2023-02-28T08:08:28;18.80;31.80
11848;DHT22;5983;49.966;8.052;2023-02-28T08:10:58;19.00;30.90
11848;DHT22;5983;49.966;8.052;2023-02-28T08:13:29;19.30;30.50
11848;DHT22;5983;49.966;8.052;2023-02-28T08:15:56;19.40;29.80
11848;DHT22;5983;49.966;8.052;2023-02-28T08:18:24;19.30;29.10
11848;DHT22;5983;49.966;8.052;2023-02-28T08:20:51;19.10;29.10
11848;DHT22;5983;49.966;8.052;2023-02-28T08:23:18;18.40;28.90
11848;DHT22;5983;49.966;8.052;2023-02-28T08:25:52;17.00;29.70
11848;DHT22;5983;49.966;8.052;2023-02-28T08:28:19;16.40;30.90
11848;DHT22;5983;49.966;8.052;2023-02-28T08:30:48;16.50;31.20
11848;DHT22;5983;49.966;8.052;2023-02-28T08:33:15;16.90;30.80
11848;DHT22;5983;49.966;8.052;2023-02-28T08:35:42;17.20;30.10
11848;DHT22;5983;49.966;8.052;2023-02-28T08:38:09;17.40;30.60
11848;DHT22;5983;49.966;8.052;2023-02-28T08:40:36;17.70;30.00
11848;DHT22;5983;49.966;8.052;2023-02-28T08:43:03;18.00;30.00
11848;DHT22;5983;49.966;8.052;2023-02-28T08:45:30;17.10;30.00
11848;DHT22;5983;49.966;8.052;2023-02-28T08:47:58;15.70;31.20
11848;DHT22;5983;49.966;8.052;2023-02-28T08:50:25;14.60;32.70
11848;DHT22;5983;49.966;8.052;2023-02-28T08:52:52;14.10;33.60
11848;DHT22;5983;49.966;8.052;2023-02-28T08:55:20;14.30;34.10
11848;DHT22;5983;49.966;8.052;2023-02-28T08:57:47;14.30;34.00
11848;DHT22;5983;49.966;8.052;2023-02-28T09:00:14;14.40;33.90
11848;DHT22;5983;49.966;8.052;2023-02-28T09:02:42;14.10;33.90
11848;DHT22;5983;49.966;8.052;2023-02-28T09:05:10;13.70;34.50
11848;DHT22;5983;49.966;8.052;2023-02-28T09:07:37;13.30;35.10
11848;DHT22;5983;49.966;8.052;2023-02-28T09:10:05;12.40;36.20
11848;DHT22;5983;49.966;8.052;2023-02-28T09:12:34;11.90;36.90
11848;DHT22;5983;49.966;8.052;2023-02-28T09:15:01;11.30;37.80
11848;DHT22;5983;49.966;8.052;2023-02-28T09:17:29;10.70;39.10
11848;DHT22;5983;49.966;8.052;2023-02-28T09:19:55;10.30;40.20
11848;DHT22;5983;49.966;8.052;2023-02-28T09:22:24;10.40;40.60
11848;DHT22;5983;49.966;8.052;2023-02-28T09:24:51;10.70;40.70
11848;DHT22;5983;49.966;8.052;2023-02-28T09:27:18;11.40;40.20
11848;DHT22;5983;49.966;8.052;2023-02-28T09:29:45;12.70;39.20
11848;DHT22;5983;49.966;8.052;2023-02-28T09:32:12;14.80;36.90
11848;DHT22;5983;49.966;8.052;2023-02-28T09:34:39;16.80;34.20
11848;DHT22;5983;49.966;8.052;2023-02-28T09:37:07;18.20;32.10
11848;DHT22;5983;49.966;8.052;2023-02-28T09:39:35;19.40;29.90
11848;DHT22;5983;49.966;8.052;2023-02-28T09:42:03;20.00;29.00
11848;DHT22;5983;49.966;8.052;2023-02-28T09:44:36;20.70;28.90
11848;DHT22;5983;49.966;8.052;2023-02-28T09:47:12;21.20;27.90
11848;DHT22;5983;49.966;8.052;2023-02-28T09:49:46;21.70;27.30
11848;DHT22;5983;49.966;8.052;2023-02-28T09:52:16;22.10;26.90
11848;DHT22;5983;49.966;8.052;2023-02-28T09:54:46;22.50;26.70
11848;DHT22;5983;49.966;8.052;2023-02-28T09:57:18;23.00;26.00
11848;DHT22;5983;49.966;8.052;2023-02-28T09:59:58;23.30;25.70
11848;DHT22;5983;49.966;8.052;2023-02-28T10:02:52;23.80;25.20
11848;DHT22;5983;49.966;8.052;2023-02-28T10:05:43;24.20;24.60
11848;DHT22;5983;49.966;8.052;2023-02-28T10:08:20;24.40;24.40
11848;DHT22;5983;49.966;8.052;2023-02-28T10:10:55;24.30;24.10
11848;DHT22;5983;49.966;8.052;2023-02-28T10:13:28;23.40;23.70
11848;DHT22;5983;49.966;8.052;2023-02-28T10:16:04;22.30;24.20
11848;DHT22;5983;49.966;8.052;2023-02-28T10:18:41;21.80;24.60
11848;DHT22;5983;49.966;8.052;2023-02-28T10:21:19;21.70;25.10
11848;DHT22;5983;49.966;8.052;2023-02-28T10:23:55;22.30;24.70
11848;DHT22;5983;49.966;8.052;2023-02-28T10:26:31;22.40;24.00
11848;DHT22;5983;49.966;8.052;2023-02-28T10:28:59;22.20;24.40
11848;DHT22;5983;49.966;8.052;2023-02-28T10:31:28;21.60;24.40
11848;DHT22;5983;49.966;8.052;2023-02-28T10:33:55;21.50;24.90
11848;DHT22;5983;49.966;8.052;2023-02-28T10:36:22;22.50;24.40
11848;DHT22;5983;49.966;8.052;2023-02-28T10:38:49;23.40;23.60
11848;DHT22;5983;49.966;8.052;2023-02-28T10:41:27;23.50;23.10
11848;DHT22;5983;49.966;8.052;2023-02-28T10:44:14;22.00;23.70
11848;DHT22;5983;49.966;8.052;2023-02-28T10:46:46;22.10;24.40
11848;DHT22;5983;49.966;8.052;2023-02-28T10:49:19;23.10;23.90
11848;DHT22;5983;49.966;8.052;2023-02-28T10:51:52;24.10;23.60
11848;DHT22;5983;49.966;8.052;2023-02-28T10:54:26;25.30;23.00
11848;DHT22;5983;49.966;8.052;2023-02-28T10:57:15;26.10;22.30
11848;DHT22;5983;49.966;8.052;2023-02-28T10:59:44;26.60;21.70
11848;DHT22;5983;49.966;8.052;2023-02-28T11:02:30;25.90;21.70
11848;DHT22;5983;49.966;8.052;2023-02-28T11:04:59;24.40;22.10
11848;DHT22;5983;49.966;8.052;2023-02-28T11:07:26;22.10;22.90
11848;DHT22;5983;49.966;8.052;2023-02-28T11:09:55;19.90;24.10
11848;DHT22;5983;49.966;8.052;2023-02-28T11:12:26;19.00;25.40
11848;DHT22;5983;49.966;8.052;2023-02-28T11:14:59;19.80;25.30
11848;DHT22;5983;49.966;8.052;2023-02-28T11:17:31;21.50;24.70
11848;DHT22;5983;49.966;8.052;2023-02-28T11:20:01;23.00;23.80
11848;DHT22;5983;49.966;8.052;2023-02-28T11:22:32;23.70;23.30
11848;DHT22;5983;49.966;8.052;2023-02-28T11:25:08;24.50;23.20
11848;DHT22;5983;49.966;8.052;2023-02-28T11:27:49;23.90;22.50
11848;DHT22;5983;49.966;8.052;2023-02-28T11:30:32;22.20;23.00
11848;DHT22;5983;49.966;8.052;2023-02-28T11:33:01;21.20;24.10
11848;DHT22;5983;49.966;8.052;2023-02-28T11:35:49;21.80;24.50
11848;DHT22;5983;49.966;8.052;2023-02-28T11:38:17;23.30;23.60
11848;DHT22;5983;49.966;8.052;2023-02-28T11:40:48;24.40;23.00
11848;DHT22;5983;49.966;8.052;2023-02-28T11:43:38;24.50;22.50
11848;DHT22;5983;49.966;8.052;2023-02-28T11:46:25;23.90;22.80
11848;DHT22;5983;49.966;8.052;2023-02-28T11:49:07;23.00;23.40
11848;DHT22;5983;49.966;8.052;2023-02-28T11:51:52;21.30;23.20
11848;DHT22;5983;49.966;8.052;2023-02-28T11:54:34;20.00;24.50
11848;DHT22;5983;49.966;8.052;2023-02-28T12:03:27;21.40;23.80
11848;DHT22;5983;49.966;8.052;2023-02-28T12:06:08;22.10;23.30
11848;DHT22;5983;49.966;8.052;2023-02-28T12:08:49;22.30;23.40
11848;DHT22;5983;49.966;8.052;2023-02-28T12:11:33;23.20;22.80
11848;DHT22;5983;49.966;8.052;2023-02-28T12:14:30;24.00;22.30
11848;DHT22;5983;49.966;8.052;2023-02-28T12:17:27;24.40;22.70
11848;DHT22;5983;49.966;8.052;2023-02-28T12:20:12;25.50;22.30
11848;DHT22;5983;49.966;8.052;2023-02-28T12:22:55;27.00;21.40
11848;DHT22;5983;49.966;8.052;2023-02-28T12:25:47;28.00;20.10
11848;DHT22;5983;49.966;8.052;2023-02-28T12:28:23;28.60;19.80
11848;DHT22;5983;49.966;8.052;2023-02-28T12:30:58;28.20;20.00
11848;DHT22;5983;49.966;8.052;2023-02-28T12:33:34;28.40;19.90
11848;DHT22;5983;49.966;8.052;2023-02-28T12:36:09;28.60;19.40
11848;DHT22;5983;49.966;8.052;2023-02-28T12:38:40;28.00;19.70
11848;DHT22;5983;49.966;8.052;2023-02-28T12:41:13;28.80;19.40
11848;DHT22;5983;49.966;8.052;2023-02-28T12:43:45;29.30;19.40
11848;DHT22;5983;49.966;8.052;2023-02-28T12:46:17;29.70;19.20
11848;DHT22;5983;49.966;8.052;2023-02-28T12:48:52;30.10;19.00
11848;DHT22;5983;49.966;8.052;2023-02-28T12:51:22;30.80;18.60
11848;DHT22;5983;49.966;8.052;2023-02-28T12:54:00;30.30;18.30
11848;DHT22;5983;49.966;8.052;2023-02-28T12:56:42;29.80;18.10
11848;DHT22;5983;49.966;8.052;2023-02-28T12:59:18;29.40;18.10
11848;DHT22;5983;49.966;8.052;2023-02-28T13:05:39;28.60;18.70
11848;DHT22;5983;49.966;8.052;2023-02-28T13:08:43;29.00;18.90
11848;DHT22;5983;49.966;8.052;2023-02-28T13:11:25;29.50;18.40
11848;DHT22;5983;49.966;8.052;2023-02-28T13:14:00;29.40;18.20
11848;DHT22;5983;49.966;8.052;2023-02-28T13:16:50;29.40;18.30
11848;DHT22;5983;49.966;8.052;2023-02-28T13:19:22;29.70;18.40
11848;DHT22;5983;49.966;8.052;2023-02-28T13:21:53;30.00;18.50
11848;DHT22;5983;49.966;8.052;2023-02-28T13:24:44;30.30;18.20
11848;DHT22;5983;49.966;8.052;2023-02-28T13:27:32;30.50;18.10
11848;DHT22;5983;49.966;8.052;2023-02-28T13:30:02;30.60;18.10
11848;DHT22;5983;49.966;8.052;2023-02-28T13:33:26;30.90;18.00
11848;DHT22;5983;49.966;8.052;2023-02-28T13:36:07;31.30;17.70
11848;DHT22;5983;49.966;8.052;2023-02-28T13:38:51;31.50;18.30
11848;DHT22;5983;49.966;8.052;2023-02-28T13:41:45;31.30;17.60
11848;DHT22;5983;49.966;8.052;2023-02-28T13:44:15;30.70;17.60
11848;DHT22;5983;49.966;8.052;2023-02-28T13:47:19;30.50;17.30
11848;DHT22;5983;49.966;8.052;2023-02-28T13:49:51;29.80;17.80
11848;DHT22;5983;49.966;8.052;2023-02-28T13:52:23;29.70;17.90
11848;DHT22;5983;49.966;8.052;2023-02-28T13:55:19;29.40;18.00
11848;DHT22;5983;49.966;8.052;2023-02-28T13:58:15;29.20;18.60
11848;DHT22;5983;49.966;8.052;2023-02-28T14:01:14;29.40;18.40
11848;DHT22;5983;49.966;8.052;2023-02-28T14:04:17;29.80;18.50
11848;DHT22;5983;49.966;8.052;2023-02-28T14:07:18;30.00;18.00
11848;DHT22;5983;49.966;8.052;2023-02-28T14:09:55;29.70;17.80
11848;DHT22;5983;49.966;8.052;2023-02-28T14:15:58;29.20;18.20
11848;DHT22;5983;49.966;8.052;2023-02-28T14:18:29;28.80;18.20
11848;DHT22;5983;49.966;8.052;2023-02-28T14:21:02;28.70;18.30
11848;DHT22;5983;49.966;8.052;2023-02-28T14:24:17;28.60;18.20
11848;DHT22;5983;49.966;8.052;2023-02-28T14:27:36;28.50;18.50
11848;DHT22;5983;49.966;8.052;2023-02-28T14:30:42;28.40;18.60
11848;DHT22;5983;49.966;8.052;2023-02-28T14:33:40;28.30;18.50
11848;DHT22;5983;49.966;8.052;2023-02-28T14:36:21;28.00;18.90
11848;DHT22;5983;49.966;8.052;2023-02-28T14:38:53;27.80;18.70
11848;DHT22;5983;49.966;8.052;2023-02-28T14:41:26;26.50;19.30
11848;DHT22;5983;49.966;8.052;2023-02-28T14:43:57;25.70;19.80
11848;DHT22;5983;49.966;8.052;2023-02-28T14:46:28;25.50;20.10
11848;DHT22;5983;49.966;8.052;2023-02-28T14:49:04;25.20;20.10
11848;DHT22;5983;49.966;8.052;2023-02-28T14:51:32;24.20;20.30
11848;DHT22;5983;49.966;8.052;2023-02-28T14:54:01;22.60;21.20
11848;DHT22;5983;49.966;8.052;2023-02-28T14:56:34;20.30;22.30
11848;DHT22;5983;49.966;8.052;2023-02-28T14:59:03;18.10;24.00
11848;DHT22;5983;49.966;8.052;2023-02-28T15:01:31;16.30;25.60
11848;DHT22;5983;49.966;8.052;2023-02-28T15:04:01;15.10;26.80
11848;DHT22;5983;49.966;8.052;2023-02-28T15:06:32;14.00;27.80
11848;DHT22;5983;49.966;8.052;2023-02-28T15:09:10;13.20;28.90
11848;DHT22;5983;49.966;8.052;2023-02-28T15:11:40;12.40;29.30
11848;DHT22;5983;49.966;8.052;2023-02-28T15:14:15;11.90;30.20
11848;DHT22;5983;49.966;8.052;2023-02-28T15:16:48;11.40;30.80
11848;DHT22;5983;49.966;8.052;2023-02-28T15:19:22;11.20;31.90
11848;DHT22;5983;49.966;8.052;2023-02-28T15:21:53;10.80;32.10
11848;DHT22;5983;49.966;8.052;2023-02-28T15:24:30;10.60;32.80
11848;DHT22;5983;49.966;8.052;2023-02-28T15:27:05;10.40;33.10
11848;DHT22;5983;49.966;8.052;2023-02-28T15:29:42;10.30;33.60
11848;DHT22;5983;49.966;8.052;2023-02-28T15:32:25;10.20;34.50
11848;DHT22;5983;49.966;8.052;2023-02-28T15:34:55;9.90;35.20
11848;DHT22;5983;49.966;8.052;2023-02-28T15:37:37;9.70;35.60
11848;DHT22;5983;49.966;8.052;2023-02-28T15:40:13;9.50;35.70
11848;DHT22;5983;49.966;8.052;2023-02-28T15:43:07;9.50;36.40
11848;DHT22;5983;49.966;8.052;2023-02-28T15:45:44;9.30;36.50
11848;DHT22;5983;49.966;8.052;2023-02-28T15:48:17;9.20;36.90
11848;DHT22;5983;49.966;8.052;2023-02-28T15:50:51;9.00;37.20
11848;DHT22;5983;49.966;8.052;2023-02-28T15:53:22;8.90;37.50
11848;DHT22;5983;49.966;8.052;2023-02-28T15:55:54;8.80;38.00
11848;DHT22;5983;49.966;8.052;2023-02-28T15:58:25;8.70;38.40
11848;DHT22;5983;49.966;8.052;2023-02-28T16:01:05;8.70;38.40
11848;DHT22;5983;49.966;8.052;2023-02-28T16:03:41;8.70;38.40
11848;DHT22;5983;49.966;8.052;2023-02-28T16:06:30;8.50;38.60
11848;DHT22;5983;49.966;8.052;2023-02-28T16:09:00;8.40;39.10
11848;DHT22;5983;49.966;8.052;2023-02-28T16:11:27;8.40;39.60
11848;DHT22;5983;49.966;8.052;2023-02-28T16:13:54;8.40;39.80
11848;DHT22;5983;49.966;8.052;2023-02-28T16:16:23;8.30;39.70
11848;DHT22;5983;49.966;8.052;2023-02-28T16:18:52;8.30;40.00
11848;DHT22;5983;49.966;8.052;2023-02-28T16:21:20;8.10;40.10
11848;DHT22;5983;49.966;8.052;2023-02-28T16:23:48;8.10;40.50
11848;DHT22;5983;49.966;8.052;2023-02-28T16:26:21;8.10;40.60
11848;DHT22;5983;49.966;8.052;2023-02-28T16:28:49;8.10;40.80
11848;DHT22;5983;49.966;8.052;2023-02-28T16:31:17;8.10;40.50
11848;DHT22;5983;49.966;8.052;2023-02-28T16:33:45;8.00;40.80
11848;DHT22;5983;49.966;8.052;2023-02-28T16:36:17;8.00;41.10
11848;DHT22;5983;49.966;8.052;2023-02-28T16:38:45;7.90;41.20
11848;DHT22;5983;49.966;8.052;2023-02-28T16:41:17;7.90;41.60
11848;DHT22;5983;49.966;8.052;2023-02-28T16:43:48;7.80;41.70
11848;DHT22;5983;49.966;8.052;2023-02-28T16:46:17;7.70;41.90
11848;DHT22;5983;49.966;8.052;2023-02-28T16:48:46;7.60;42.00
11848;DHT22;5983;49.966;8.052;2023-02-28T16:51:17;7.60;42.20
11848;DHT22;5983;49.966;8.052;2023-02-28T16:53:45;7.50;42.30
11848;DHT22;5983;49.966;8.052;2023-02-28T16:56:17;7.40;43.40